sensor_id;sensor_type;location;lat;lon;timestamp;P1;durP1;ratioP1;P2;durP2;ratioP2
32780;SDS011;19136;47.032;15.502;2023-10-09T00:00:33;6.10;;;1.40;;
32780;SDS011;19136;47.032;15.502;2023-10-09T00:03:05;3.42;;;1.13;;
32780;SDS011;19136;47.032;15.502;2023-10-09T00:05:32;2.97;;;1.23;;
32780;SDS011;19136;47.032;15.502;2023-10-09T00:08:05;5.70;;;1.52;;
32780;SDS011;19136;47.032;15.502;2023-10-09T00:10:30;4.70;;;1.02;;
32780;SDS011;19136;47.032;15.502;2023-10-09T00:13:10;5.80;;;1.80;;
32780;SDS011;19136;47.032;15.502;2023-10-09T00:15:38;5.47;;;1.17;;
32780;SDS011;19136;47.032;15.502;2023-10-09T00:18:04;5.78;;;2.10;;
32780;SDS011;19136;47.032;15.502;2023-10-09T00:20:39;9.15;;;1.40;;
32780;SDS011;19136;47.032;15.502;2023-10-09T00:23:11;3.90;;;1.60;;
32780;SDS011;19136;47.032;15.502;2023-10-09T00:25:51;7.10;;;1.55;;
32780;SDS011;19136;47.032;15.502;2023-10-09T00:28:37;6.72;;;2.03;;
32780;SDS011;19136;47.032;15.502;2023-10-09T00:31:04;4.53;;;1.67;;
32780;SDS011;19136;47.032;15.502;2023-10-09T00:33:32;3.67;;;1.30;;
32780;SDS011;19136;47.032;15.502;2023-10-09T00:36:04;6.57;;;1.50;;
32780;SDS011;19136;47.032;15.502;2023-10-09T00:38:38;9.23;;;1.73;;
32780;SDS011;19136;47.032;15.502;2023-10-09T00:41:11;4.60;;;1.60;;
32780;SDS011;19136;47.032;15.502;2023-10-09T00:43:44;5.95;;;1.70;;
32780;SDS011;19136;47.032;15.502;2023-10-09T00:46:10;6.25;;;1.60;;
32780;SDS011;19136;47.032;15.502;2023-10-09T00:48:50;2.95;;;1.38;;
32780;SDS011;19136;47.032;15.502;2023-10-09T00:51:16;7.40;;;1.42;;
32780;SDS011;19136;47.032;15.502;2023-10-09T00:53:49;6.75;;;1.60;;
32780;SDS011;19136;47.032;15.502;2023-10-09T00:56:20;3.72;;;1.52;;
32780;SDS011;19136;47.032;15.502;2023-10-09T00:58:56;2.97;;;1.63;;
32780;SDS011;19136;47.032;15.502;2023-10-09T01:01:26;3.95;;;1.58;;
32780;SDS011;19136;47.032;15.502;2023-10-09T01:04:03;7.20;;;1.80;;
32780;SDS011;19136;47.032;15.502;2023-10-09T01:06:55;14.40;;;3.95;;
32780;SDS011;19136;47.032;15.502;2023-10-09T01:09:41;8.35;;;1.63;;
32780;SDS011;19136;47.032;15.502;2023-10-09T01:12:10;6.78;;;1.67;;
32780;SDS011;19136;47.032;15.502;2023-10-09T01:14:45;5.38;;;1.55;;
32780;SDS011;19136;47.032;15.502;2023-10-09T01:17:11;3.30;;;1.40;;
32780;SDS011;19136;47.032;15.502;2023-10-09T01:19:37;5.53;;;1.75;;
32780;SDS011;19136;47.032;15.502;2023-10-09T01:22:02;9.90;;;1.70;;
32780;SDS011;19136;47.032;15.502;2023-10-09T01:24:41;3.38;;;1.42;;
32780;SDS011;19136;47.032;15.502;2023-10-09T01:27:08;5.35;;;1.48;;
32780;SDS011;19136;47.032;15.502;2023-10-09T01:29:40;5.35;;;1.48;;
32780;SDS011;19136;47.032;15.502;2023-10-09T01:32:07;5.35;;;1.58;;
32780;SDS011;19136;47.032;15.502;2023-10-09T01:34:34;3.30;;;1.52;;
32780;SDS011;19136;47.032;15.502;2023-10-09T01:37:13;4.78;;;1.42;;
32780;SDS011;19136;47.032;15.502;2023-10-09T01:39:51;3.72;;;1.75;;
32780;SDS011;19136;47.032;15.502;2023-10-09T01:42:17;4.90;;;1.60;;
32780;SDS011;19136;47.032;15.502;2023-10-09T01:45:10;5.00;;;1.70;;
32780;SDS011;19136;47.032;15.502;2023-10-09T01:47:52;8.90;;;2.15;;
32780;SDS011;19136;47.032;15.502;2023-10-09T01:50:19;6.32;;;1.95;;
32780;SDS011;19136;47.032;15.502;2023-10-09T01:52:48;8.68;;;1.90;;
32780;SDS011;19136;47.032;15.502;2023-10-09T01:55:13;4.40;;;1.48;;
32780;SDS011;19136;47.032;15.502;2023-10-09T01:57:53;5.40;;;1.50;;
32780;SDS011;19136;47.032;15.502;2023-10-09T02:00:18;7.72;;;1.70;;
32780;SDS011;19136;47.032;15.502;2023-10-09T02:02:49;6.25;;;1.30;;
32780;SDS011;19136;47.032;15.502;2023-10-09T02:05:15;5.55;;;1.30;;
32780;SDS011;19136;47.032;15.502;2023-10-09T02:07:41;7.35;;;1.67;;
32780;SDS011;19136;47.032;15.502;2023-10-09T02:10:11;3.38;;;1.67;;
32780;SDS011;19136;47.032;15.502;2023-10-09T02:12:58;6.47;;;1.73;;
32780;SDS011;19136;47.032;15.502;2023-10-09T02:15:29;5.03;;;1.50;;
32780;SDS011;19136;47.032;15.502;2023-10-09T02:20:48;8.80;;;1.90;;
32780;SDS011;19136;47.032;15.502;2023-10-09T02:23:21;3.88;;;1.40;;
32780;SDS011;19136;47.032;15.502;2023-10-09T02:25:55;9.98;;;1.88;;
32780;SDS011;19136;47.032;15.502;2023-10-09T02:28:21;6.07;;;1.92;;
32780;SDS011;19136;47.032;15.502;2023-10-09T02:30:47;7.97;;;1.65;;
32780;SDS011;19136;47.032;15.502;2023-10-09T02:33:13;4.28;;;1.80;;
32780;SDS011;19136;47.032;15.502;2023-10-09T02:35:43;4.60;;;1.45;;
32780;SDS011;19136;47.032;15.502;2023-10-09T02:38:09;4.57;;;1.70;;
32780;SDS011;19136;47.032;15.502;2023-10-09T02:40:40;4.05;;;1.30;;
32780;SDS011;19136;47.032;15.502;2023-10-09T02:43:09;6.70;;;2.10;;
32780;SDS011;19136;47.032;15.502;2023-10-09T02:45:44;8.75;;;2.00;;
32780;SDS011;19136;47.032;15.502;2023-10-09T02:48:18;11.82;;;2.20;;
32780;SDS011;19136;47.032;15.502;2023-10-09T02:50:46;6.88;;;2.63;;
32780;SDS011;19136;47.032;15.502;2023-10-09T02:53:12;7.65;;;1.70;;
32780;SDS011;19136;47.032;15.502;2023-10-09T02:55:44;7.30;;;1.80;;
32780;SDS011;19136;47.032;15.502;2023-10-09T02:58:30;5.38;;;1.50;;
32780;SDS011;19136;47.032;15.502;2023-10-09T03:00:58;7.18;;;2.10;;
32780;SDS011;19136;47.032;15.502;2023-10-09T03:03:24;8.27;;;2.13;;
32780;SDS011;19136;47.032;15.502;2023-10-09T03:05:50;3.50;;;1.50;;
32780;SDS011;19136;47.032;15.502;2023-10-09T03:08:16;5.18;;;2.00;;
32780;SDS011;19136;47.032;15.502;2023-10-09T03:10:44;8.75;;;2.05;;
32780;SDS011;19136;47.032;15.502;2023-10-09T03:13:09;4.55;;;2.08;;
32780;SDS011;19136;47.032;15.502;2023-10-09T03:15:35;5.38;;;1.65;;
32780;SDS011;19136;47.032;15.502;2023-10-09T03:18:04;5.32;;;1.80;;
32780;SDS011;19136;47.032;15.502;2023-10-09T03:20:33;4.80;;;1.90;;
32780;SDS011;19136;47.032;15.502;2023-10-09T03:22:59;5.78;;;1.95;;
32780;SDS011;19136;47.032;15.502;2023-10-09T03:25:27;7.85;;;2.13;;
32780;SDS011;19136;47.032;15.502;2023-10-09T03:27:53;12.95;;;1.92;;
32780;SDS011;19136;47.032;15.502;2023-10-09T03:30:21;3.70;;;1.50;;
32780;SDS011;19136;47.032;15.502;2023-10-09T03:32:50;5.63;;;1.98;;
32780;SDS011;19136;47.032;15.502;2023-10-09T03:35:19;7.03;;;2.00;;
32780;SDS011;19136;47.032;15.502;2023-10-09T03:37:53;5.45;;;1.95;;
32780;SDS011;19136;47.032;15.502;2023-10-09T03:40:22;6.25;;;1.95;;
32780;SDS011;19136;47.032;15.502;2023-10-09T03:42:48;7.22;;;2.10;;
32780;SDS011;19136;47.032;15.502;2023-10-09T03:45:14;4.60;;;1.70;;
32780;SDS011;19136;47.032;15.502;2023-10-09T03:48:05;5.07;;;1.58;;
32780;SDS011;19136;47.032;15.502;2023-10-09T03:50:46;4.68;;;1.60;;
32780;SDS011;19136;47.032;15.502;2023-10-09T03:53:13;6.75;;;1.83;;
32780;SDS011;19136;47.032;15.502;2023-10-09T03:55:39;11.43;;;2.17;;
32780;SDS011;19136;47.032;15.502;2023-10-09T03:58:05;7.63;;;2.00;;
32780;SDS011;19136;47.032;15.502;2023-10-09T04:00:31;4.82;;;1.63;;
32780;SDS011;19136;47.032;15.502;2023-10-09T04:03:06;9.75;;;2.15;;
32780;SDS011;19136;47.032;15.502;2023-10-09T04:05:32;4.25;;;2.03;;
32780;SDS011;19136;47.032;15.502;2023-10-09T04:07:57;9.68;;;1.58;;
32780;SDS011;19136;47.032;15.502;2023-10-09T04:10:27;12.90;;;1.90;;
32780;SDS011;19136;47.032;15.502;2023-10-09T04:13:11;7.10;;;1.77;;
32780;SDS011;19136;47.032;15.502;2023-10-09T04:15:38;4.20;;;1.73;;
32780;SDS011;19136;47.032;15.502;2023-10-09T04:18:07;6.43;;;2.00;;
32780;SDS011;19136;47.032;15.502;2023-10-09T04:20:40;3.50;;;1.60;;
32780;SDS011;19136;47.032;15.502;2023-10-09T04:23:40;4.15;;;2.08;;
32780;SDS011;19136;47.032;15.502;2023-10-09T04:26:25;6.82;;;2.00;;
32780;SDS011;19136;47.032;15.502;2023-10-09T04:28:51;5.50;;;1.83;;
32780;SDS011;19136;47.032;15.502;2023-10-09T04:31:21;6.70;;;2.05;;
32780;SDS011;19136;47.032;15.502;2023-10-09T04:34:00;5.22;;;1.73;;
32780;SDS011;19136;47.032;15.502;2023-10-09T04:36:44;6.38;;;1.85;;
32780;SDS011;19136;47.032;15.502;2023-10-09T04:39:15;10.52;;;2.10;;
32780;SDS011;19136;47.032;15.502;2023-10-09T04:41:56;5.18;;;2.00;;
32780;SDS011;19136;47.032;15.502;2023-10-09T04:44:43;14.57;;;2.67;;
32780;SDS011;19136;47.032;15.502;2023-10-09T04:47:30;8.35;;;2.17;;
32780;SDS011;19136;47.032;15.502;2023-10-09T04:52:37;9.90;;;2.00;;
32780;SDS011;19136;47.032;15.502;2023-10-09T04:55:02;9.45;;;2.72;;
32780;SDS011;19136;47.032;15.502;2023-10-09T04:57:38;4.97;;;1.98;;
32780;SDS011;19136;47.032;15.502;2023-10-09T05:00:19;7.22;;;1.83;;
32780;SDS011;19136;47.032;15.502;2023-10-09T05:03:08;7.57;;;2.15;;
32780;SDS011;19136;47.032;15.502;2023-10-09T05:05:37;6.50;;;2.03;;
32780;SDS011;19136;47.032;15.502;2023-10-09T05:08:06;4.22;;;2.33;;
32780;SDS011;19136;47.032;15.502;2023-10-09T05:10:51;4.18;;;2.35;;
32780;SDS011;19136;47.032;15.502;2023-10-09T05:13:32;8.32;;;2.45;;
32780;SDS011;19136;47.032;15.502;2023-10-09T05:16:07;18.40;;;3.00;;
32780;SDS011;19136;47.032;15.502;2023-10-09T05:18:41;8.80;;;2.78;;
32780;SDS011;19136;47.032;15.502;2023-10-09T05:21:07;12.35;;;3.22;;
32780;SDS011;19136;47.032;15.502;2023-10-09T05:23:41;7.07;;;2.30;;
32780;SDS011;19136;47.032;15.502;2023-10-09T05:26:17;8.73;;;2.88;;
32780;SDS011;19136;47.032;15.502;2023-10-09T05:29:03;10.13;;;2.55;;
32780;SDS011;19136;47.032;15.502;2023-10-09T05:31:51;10.88;;;2.58;;
32780;SDS011;19136;47.032;15.502;2023-10-09T05:34:31;9.85;;;3.40;;
32780;SDS011;19136;47.032;15.502;2023-10-09T05:37:03;6.05;;;2.10;;
32780;SDS011;19136;47.032;15.502;2023-10-09T05:40:04;8.55;;;2.55;;
32780;SDS011;19136;47.032;15.502;2023-10-09T05:42:42;7.20;;;2.58;;
32780;SDS011;19136;47.032;15.502;2023-10-09T05:45:09;6.43;;;2.40;;
32780;SDS011;19136;47.032;15.502;2023-10-09T05:47:44;8.85;;;2.22;;
32780;SDS011;19136;47.032;15.502;2023-10-09T05:52:44;8.13;;;2.55;;
32780;SDS011;19136;47.032;15.502;2023-10-09T05:55:19;6.47;;;2.47;;
32780;SDS011;19136;47.032;15.502;2023-10-09T05:58:04;10.90;;;2.83;;
32780;SDS011;19136;47.032;15.502;2023-10-09T06:00:49;10.40;;;2.67;;
32780;SDS011;19136;47.032;15.502;2023-10-09T06:03:33;8.43;;;2.53;;
32780;SDS011;19136;47.032;15.502;2023-10-09T06:06:14;17.05;;;2.65;;
32780;SDS011;19136;47.032;15.502;2023-10-09T06:09:02;7.13;;;2.38;;
32780;SDS011;19136;47.032;15.502;2023-10-09T06:11:40;8.57;;;2.80;;
32780;SDS011;19136;47.032;15.502;2023-10-09T06:14:07;7.18;;;2.70;;
32780;SDS011;19136;47.032;15.502;2023-10-09T06:16:35;6.53;;;2.75;;
32780;SDS011;19136;47.032;15.502;2023-10-09T06:19:07;9.23;;;2.83;;
32780;SDS011;19136;47.032;15.502;2023-10-09T06:21:58;4.90;;;2.30;;
32780;SDS011;19136;47.032;15.502;2023-10-09T06:24:42;8.80;;;2.55;;
32780;SDS011;19136;47.032;15.502;2023-10-09T06:27:11;9.68;;;2.20;;
32780;SDS011;19136;47.032;15.502;2023-10-09T06:29:38;8.35;;;2.25;;
32780;SDS011;19136;47.032;15.502;2023-10-09T06:32:16;5.97;;;2.38;;
32780;SDS011;19136;47.032;15.502;2023-10-09T06:34:42;7.13;;;2.05;;
32780;SDS011;19136;47.032;15.502;2023-10-09T06:37:10;8.63;;;2.65;;
32780;SDS011;19136;47.032;15.502;2023-10-09T06:39:51;4.85;;;2.20;;
32780;SDS011;19136;47.032;15.502;2023-10-09T06:42:23;8.73;;;2.45;;
32780;SDS011;19136;47.032;15.502;2023-10-09T06:45:03;7.88;;;1.70;;
32780;SDS011;19136;47.032;15.502;2023-10-09T06:47:34;7.07;;;2.00;;
32780;SDS011;19136;47.032;15.502;2023-10-09T06:50:10;7.32;;;2.25;;
32780;SDS011;19136;47.032;15.502;2023-10-09T06:52:58;4.47;;;1.73;;
32780;SDS011;19136;47.032;15.502;2023-10-09T06:55:36;7.18;;;2.55;;
32780;SDS011;19136;47.032;15.502;2023-10-09T06:58:14;6.32;;;2.20;;
32780;SDS011;19136;47.032;15.502;2023-10-09T07:00:41;10.02;;;3.45;;
32780;SDS011;19136;47.032;15.502;2023-10-09T07:03:25;9.32;;;2.75;;
32780;SDS011;19136;47.032;15.502;2023-10-09T07:06:06;6.25;;;2.85;;
32780;SDS011;19136;47.032;15.502;2023-10-09T07:08:52;11.50;;;3.08;;
32780;SDS011;19136;47.032;15.502;2023-10-09T07:11:38;9.43;;;2.33;;
32780;SDS011;19136;47.032;15.502;2023-10-09T07:16:32;5.75;;;2.13;;
32780;SDS011;19136;47.032;15.502;2023-10-09T07:19:04;8.30;;;2.47;;
32780;SDS011;19136;47.032;15.502;2023-10-09T07:21:45;12.40;;;2.78;;
32780;SDS011;19136;47.032;15.502;2023-10-09T07:24:17;9.13;;;2.60;;
32780;SDS011;19136;47.032;15.502;2023-10-09T07:26:46;10.52;;;2.97;;
32780;SDS011;19136;47.032;15.502;2023-10-09T07:29:19;7.25;;;2.08;;
32780;SDS011;19136;47.032;15.502;2023-10-09T07:31:48;9.32;;;3.13;;
32780;SDS011;19136;47.032;15.502;2023-10-09T07:34:23;8.77;;;2.60;;
32780;SDS011;19136;47.032;15.502;2023-10-09T07:37:18;5.75;;;2.75;;
32780;SDS011;19136;47.032;15.502;2023-10-09T07:39:44;13.88;;;3.67;;
32780;SDS011;19136;47.032;15.502;2023-10-09T07:42:15;14.23;;;3.40;;
32780;SDS011;19136;47.032;15.502;2023-10-09T07:44:44;7.25;;;2.55;;
32780;SDS011;19136;47.032;15.502;2023-10-09T07:47:18;9.65;;;2.97;;
32780;SDS011;19136;47.032;15.502;2023-10-09T07:50:09;6.65;;;2.45;;
32780;SDS011;19136;47.032;15.502;2023-10-09T07:52:36;9.63;;;3.10;;
32780;SDS011;19136;47.032;15.502;2023-10-09T07:55:09;6.60;;;3.33;;
32780;SDS011;19136;47.032;15.502;2023-10-09T07:57:51;5.72;;;2.50;;
32780;SDS011;19136;47.032;15.502;2023-10-09T08:00:17;10.18;;;3.10;;
32780;SDS011;19136;47.032;15.502;2023-10-09T08:03:01;8.48;;;2.70;;
32780;SDS011;19136;47.032;15.502;2023-10-09T08:05:47;9.10;;;3.22;;
32780;SDS011;19136;47.032;15.502;2023-10-09T08:08:14;9.13;;;2.90;;
32780;SDS011;19136;47.032;15.502;2023-10-09T08:11:02;6.72;;;2.53;;
32780;SDS011;19136;47.032;15.502;2023-10-09T08:13:46;10.50;;;2.83;;
32780;SDS011;19136;47.032;15.502;2023-10-09T08:16:15;5.82;;;2.50;;
32780;SDS011;19136;47.032;15.502;2023-10-09T08:18:47;6.23;;;2.70;;
32780;SDS011;19136;47.032;15.502;2023-10-09T08:21:19;8.65;;;2.78;;
32780;SDS011;19136;47.032;15.502;2023-10-09T08:23:45;6.97;;;2.33;;
32780;SDS011;19136;47.032;15.502;2023-10-09T08:26:13;10.93;;;2.92;;
32780;SDS011;19136;47.032;15.502;2023-10-09T08:28:40;8.98;;;2.70;;
32780;SDS011;19136;47.032;15.502;2023-10-09T08:31:17;6.13;;;2.25;;
32780;SDS011;19136;47.032;15.502;2023-10-09T08:34:13;8.52;;;2.50;;
32780;SDS011;19136;47.032;15.502;2023-10-09T08:36:52;7.03;;;2.63;;
32780;SDS011;19136;47.032;15.502;2023-10-09T08:39:22;6.47;;;2.50;;
32780;SDS011;19136;47.032;15.502;2023-10-09T08:41:58;8.82;;;2.63;;
32780;SDS011;19136;47.032;15.502;2023-10-09T08:44:24;6.93;;;2.47;;
32780;SDS011;19136;47.032;15.502;2023-10-09T08:46:53;6.00;;;2.25;;
32780;SDS011;19136;47.032;15.502;2023-10-09T08:49:19;6.47;;;2.38;;
32780;SDS011;19136;47.032;15.502;2023-10-09T08:51:46;8.35;;;2.28;;
32780;SDS011;19136;47.032;15.502;2023-10-09T08:54:13;4.13;;;2.22;;
32780;SDS011;19136;47.032;15.502;2023-10-09T08:56:40;9.73;;;3.25;;
32780;SDS011;19136;47.032;15.502;2023-10-09T08:59:15;10.38;;;2.72;;
32780;SDS011;19136;47.032;15.502;2023-10-09T09:01:41;7.72;;;2.45;;
32780;SDS011;19136;47.032;15.502;2023-10-09T09:04:06;7.82;;;2.78;;
32780;SDS011;19136;47.032;15.502;2023-10-09T09:06:38;6.57;;;2.75;;
32780;SDS011;19136;47.032;15.502;2023-10-09T09:09:10;7.88;;;3.15;;
32780;SDS011;19136;47.032;15.502;2023-10-09T09:11:42;11.50;;;3.22;;
32780;SDS011;19136;47.032;15.502;2023-10-09T09:14:18;10.30;;;3.10;;
32780;SDS011;19136;47.032;15.502;2023-10-09T09:16:47;13.82;;;2.90;;
32780;SDS011;19136;47.032;15.502;2023-10-09T09:19:17;12.23;;;2.65;;
32780;SDS011;19136;47.032;15.502;2023-10-09T09:21:47;7.65;;;3.05;;
32780;SDS011;19136;47.032;15.502;2023-10-09T09:24:14;15.27;;;3.28;;
32780;SDS011;19136;47.032;15.502;2023-10-09T09:27:02;7.53;;;3.00;;
32780;SDS011;19136;47.032;15.502;2023-10-09T09:29:44;17.27;;;2.90;;
32780;SDS011;19136;47.032;15.502;2023-10-09T09:32:25;8.30;;;2.65;;
32780;SDS011;19136;47.032;15.502;2023-10-09T09:34:55;11.18;;;3.70;;
32780;SDS011;19136;47.032;15.502;2023-10-09T09:37:27;12.30;;;2.83;;
32780;SDS011;19136;47.032;15.502;2023-10-09T09:39:57;7.80;;;3.22;;
32780;SDS011;19136;47.032;15.502;2023-10-09T09:42:23;10.00;;;2.53;;
32780;SDS011;19136;47.032;15.502;2023-10-09T09:44:52;11.50;;;2.72;;
32780;SDS011;19136;47.032;15.502;2023-10-09T09:47:17;12.35;;;3.35;;
32780;SDS011;19136;47.032;15.502;2023-10-09T09:49:51;13.93;;;3.00;;
32780;SDS011;19136;47.032;15.502;2023-10-09T09:52:18;10.90;;;3.10;;
32780;SDS011;19136;47.032;15.502;2023-10-09T09:54:44;6.15;;;2.85;;
32780;SDS011;19136;47.032;15.502;2023-10-09T09:57:09;7.75;;;2.53;;
32780;SDS011;19136;47.032;15.502;2023-10-09T09:59:38;10.18;;;2.60;;
32780;SDS011;19136;47.032;15.502;2023-10-09T10:02:18;11.45;;;2.95;;
32780;SDS011;19136;47.032;15.502;2023-10-09T10:04:46;12.60;;;3.22;;
32780;SDS011;19136;47.032;15.502;2023-10-09T10:07:15;10.35;;;3.33;;
32780;SDS011;19136;47.032;15.502;2023-10-09T10:09:42;9.88;;;3.25;;
32780;SDS011;19136;47.032;15.502;2023-10-09T10:12:10;22.83;;;3.90;;
32780;SDS011;19136;47.032;15.502;2023-10-09T10:14:55;15.43;;;3.42;;
32780;SDS011;19136;47.032;15.502;2023-10-09T10:17:25;18.38;;;4.63;;
32780;SDS011;19136;47.032;15.502;2023-10-09T10:20:08;14.25;;;2.80;;
32780;SDS011;19136;47.032;15.502;2023-10-09T10:22:42;9.13;;;2.35;;
32780;SDS011;19136;47.032;15.502;2023-10-09T10:28:17;9.95;;;2.78;;
32780;SDS011;19136;47.032;15.502;2023-10-09T10:31:01;8.10;;;3.22;;
32780;SDS011;19136;47.032;15.502;2023-10-09T10:36:13;9.48;;;2.25;;
32780;SDS011;19136;47.032;15.502;2023-10-09T10:38:58;7.40;;;2.30;;
32780;SDS011;19136;47.032;15.502;2023-10-09T10:41:29;8.38;;;2.50;;
32780;SDS011;19136;47.032;15.502;2023-10-09T10:44:01;11.95;;;2.10;;
32780;SDS011;19136;47.032;15.502;2023-10-09T10:46:46;8.10;;;2.45;;
32780;SDS011;19136;47.032;15.502;2023-10-09T10:49:17;8.60;;;2.20;;
32780;SDS011;19136;47.032;15.502;2023-10-09T10:51:47;9.32;;;1.88;;
32780;SDS011;19136;47.032;15.502;2023-10-09T10:54:35;9.75;;;2.60;;
32780;SDS011;19136;47.032;15.502;2023-10-09T10:57:01;5.30;;;2.00;;
32780;SDS011;19136;47.032;15.502;2023-10-09T10:59:31;9.15;;;1.92;;
32780;SDS011;19136;47.032;15.502;2023-10-09T11:02:01;9.27;;;2.88;;
32780;SDS011;19136;47.032;15.502;2023-10-09T11:04:27;11.55;;;2.45;;
32780;SDS011;19136;47.032;15.502;2023-10-09T11:06:53;8.93;;;2.47;;
32780;SDS011;19136;47.032;15.502;2023-10-09T11:09:25;7.03;;;2.28;;
32780;SDS011;19136;47.032;15.502;2023-10-09T11:12:04;7.05;;;2.22;;
32780;SDS011;19136;47.032;15.502;2023-10-09T11:14:45;10.85;;;2.33;;
32780;SDS011;19136;47.032;15.502;2023-10-09T11:17:14;6.18;;;2.17;;
32780;SDS011;19136;47.032;15.502;2023-10-09T11:19:49;10.57;;;1.80;;
32780;SDS011;19136;47.032;15.502;2023-10-09T11:22:17;14.43;;;2.50;;
32780;SDS011;19136;47.032;15.502;2023-10-09T11:25:01;8.48;;;2.50;;
32780;SDS011;19136;47.032;15.502;2023-10-09T11:27:36;7.20;;;2.13;;
32780;SDS011;19136;47.032;15.502;2023-10-09T11:30:05;26.05;;;3.67;;
32780;SDS011;19136;47.032;15.502;2023-10-09T11:32:46;11.18;;;2.05;;
32780;SDS011;19136;47.032;15.502;2023-10-09T11:35:15;14.70;;;2.67;;
32780;SDS011;19136;47.032;15.502;2023-10-09T11:37:54;8.00;;;1.85;;
32780;SDS011;19136;47.032;15.502;2023-10-09T11:40:33;9.77;;;2.10;;
32780;SDS011;19136;47.032;15.502;2023-10-09T11:43:30;4.88;;;2.15;;
32780;SDS011;19136;47.032;15.502;2023-10-09T11:46:19;15.70;;;2.58;;
32780;SDS011;19136;47.032;15.502;2023-10-09T11:51:49;7.25;;;2.42;;
32780;SDS011;19136;47.032;15.502;2023-10-09T11:54:35;7.90;;;1.88;;
32780;SDS011;19136;47.032;15.502;2023-10-09T11:57:01;8.10;;;2.22;;
32780;SDS011;19136;47.032;15.502;2023-10-09T11:59:27;4.95;;;2.00;;
32780;SDS011;19136;47.032;15.502;2023-10-09T12:01:52;13.23;;;2.38;;
32780;SDS011;19136;47.032;15.502;2023-10-09T12:04:18;5.78;;;2.17;;
32780;SDS011;19136;47.032;15.502;2023-10-09T12:06:44;8.38;;;2.20;;
32780;SDS011;19136;47.032;15.502;2023-10-09T12:09:11;6.25;;;2.47;;
32780;SDS011;19136;47.032;15.502;2023-10-09T12:11:49;12.07;;;2.63;;
32780;SDS011;19136;47.032;15.502;2023-10-09T12:14:18;7.63;;;2.50;;
32780;SDS011;19136;47.032;15.502;2023-10-09T12:16:49;12.13;;;2.08;;
32780;SDS011;19136;47.032;15.502;2023-10-09T12:19:15;10.30;;;2.35;;
32780;SDS011;19136;47.032;15.502;2023-10-09T12:21:40;7.40;;;2.10;;
32780;SDS011;19136;47.032;15.502;2023-10-09T12:24:08;12.50;;;2.80;;
32780;SDS011;19136;47.032;15.502;2023-10-09T12:26:37;11.57;;;3.00;;
32780;SDS011;19136;47.032;15.502;2023-10-09T12:29:04;8.82;;;2.13;;
32780;SDS011;19136;47.032;15.502;2023-10-09T12:31:36;9.05;;;2.58;;
32780;SDS011;19136;47.032;15.502;2023-10-09T12:34:02;7.20;;;2.50;;
32780;SDS011;19136;47.032;15.502;2023-10-09T12:36:28;11.43;;;2.50;;
32780;SDS011;19136;47.032;15.502;2023-10-09T12:38:53;14.70;;;2.60;;
32780;SDS011;19136;47.032;15.502;2023-10-09T12:41:24;10.88;;;1.98;;
32780;SDS011;19136;47.032;15.502;2023-10-09T12:43:58;9.57;;;2.67;;
32780;SDS011;19136;47.032;15.502;2023-10-09T12:46:24;10.40;;;2.65;;
32780;SDS011;19136;47.032;15.502;2023-10-09T12:48:54;12.20;;;2.50;;
32780;SDS011;19136;47.032;15.502;2023-10-09T12:51:20;8.02;;;2.33;;
32780;SDS011;19136;47.032;15.502;2023-10-09T12:53:46;9.93;;;3.20;;
32780;SDS011;19136;47.032;15.502;2023-10-09T12:56:14;5.88;;;2.83;;
32780;SDS011;19136;47.032;15.502;2023-10-09T12:58:40;12.80;;;2.83;;
32780;SDS011;19136;47.032;15.502;2023-10-09T13:01:20;8.85;;;2.80;;
32780;SDS011;19136;47.032;15.502;2023-10-09T13:03:46;11.65;;;3.47;;
32780;SDS011;19136;47.032;15.502;2023-10-09T13:06:14;7.05;;;3.15;;
32780;SDS011;19136;47.032;15.502;2023-10-09T13:08:41;5.95;;;3.05;;
32780;SDS011;19136;47.032;15.502;2023-10-09T13:11:08;8.35;;;3.30;;
32780;SDS011;19136;47.032;15.502;2023-10-09T13:13:37;8.27;;;2.88;;
32780;SDS011;19136;47.032;15.502;2023-10-09T13:16:10;9.48;;;2.85;;
32780;SDS011;19136;47.032;15.502;2023-10-09T13:18:40;8.15;;;3.13;;
32780;SDS011;19136;47.032;15.502;2023-10-09T13:21:07;10.82;;;3.28;;
32780;SDS011;19136;47.032;15.502;2023-10-09T13:23:32;10.65;;;3.17;;
32780;SDS011;19136;47.032;15.502;2023-10-09T13:26:05;7.47;;;3.00;;
32780;SDS011;19136;47.032;15.502;2023-10-09T13:28:44;11.20;;;3.97;;
32780;SDS011;19136;47.032;15.502;2023-10-09T13:31:11;10.95;;;3.25;;
32780;SDS011;19136;47.032;15.502;2023-10-09T13:33:42;9.65;;;3.85;;
32780;SDS011;19136;47.032;15.502;2023-10-09T13:36:09;12.20;;;3.60;;
32780;SDS011;19136;47.032;15.502;2023-10-09T13:38:59;9.63;;;2.72;;
32780;SDS011;19136;47.032;15.502;2023-10-09T13:41:43;11.18;;;3.22;;
32780;SDS011;19136;47.032;15.502;2023-10-09T13:44:08;9.15;;;3.15;;
32780;SDS011;19136;47.032;15.502;2023-10-09T13:46:34;17.33;;;3.30;;
32780;SDS011;19136;47.032;15.502;2023-10-09T13:49:09;9.50;;;3.80;;
32780;SDS011;19136;47.032;15.502;2023-10-09T13:51:39;11.65;;;3.47;;
32780;SDS011;19136;47.032;15.502;2023-10-09T13:54:11;14.85;;;3.83;;
32780;SDS011;19136;47.032;15.502;2023-10-09T13:56:45;12.32;;;3.13;;
32780;SDS011;19136;47.032;15.502;2023-10-09T13:59:10;11.90;;;3.58;;
32780;SDS011;19136;47.032;15.502;2023-10-09T14:01:38;17.05;;;3.80;;
32780;SDS011;19136;47.032;15.502;2023-10-09T14:04:05;13.90;;;3.53;;
32780;SDS011;19136;47.032;15.502;2023-10-09T14:06:33;14.95;;;3.40;;
32780;SDS011;19136;47.032;15.502;2023-10-09T14:08:59;16.15;;;3.50;;
32780;SDS011;19136;47.032;15.502;2023-10-09T14:11:29;14.27;;;3.63;;
32780;SDS011;19136;47.032;15.502;2023-10-09T14:13:55;12.02;;;2.97;;
32780;SDS011;19136;47.032;15.502;2023-10-09T14:16:20;6.38;;;3.05;;
32780;SDS011;19136;47.032;15.502;2023-10-09T14:18:58;9.48;;;3.08;;
32780;SDS011;19136;47.032;15.502;2023-10-09T14:21:28;7.88;;;3.13;;
32780;SDS011;19136;47.032;15.502;2023-10-09T14:23:58;11.75;;;3.25;;
32780;SDS011;19136;47.032;15.502;2023-10-09T14:26:27;9.90;;;2.83;;
32780;SDS011;19136;47.032;15.502;2023-10-09T14:28:53;13.00;;;3.30;;
32780;SDS011;19136;47.032;15.502;2023-10-09T14:31:19;10.20;;;2.38;;
32780;SDS011;19136;47.032;15.502;2023-10-09T14:33:52;14.00;;;2.78;;
32780;SDS011;19136;47.032;15.502;2023-10-09T14:36:19;7.22;;;3.05;;
32780;SDS011;19136;47.032;15.502;2023-10-09T14:38:44;9.18;;;2.90;;
32780;SDS011;19136;47.032;15.502;2023-10-09T14:41:12;15.07;;;2.83;;
32780;SDS011;19136;47.032;15.502;2023-10-09T14:43:38;10.93;;;2.90;;
32780;SDS011;19136;47.032;15.502;2023-10-09T14:46:03;10.75;;;3.28;;
32780;SDS011;19136;47.032;15.502;2023-10-09T14:48:38;10.65;;;2.80;;
32780;SDS011;19136;47.032;15.502;2023-10-09T14:51:04;11.70;;;3.00;;
32780;SDS011;19136;47.032;15.502;2023-10-09T14:53:30;5.75;;;2.67;;
32780;SDS011;19136;47.032;15.502;2023-10-09T14:55:56;10.43;;;4.13;;
32780;SDS011;19136;47.032;15.502;2023-10-09T14:58:21;11.27;;;3.90;;
32780;SDS011;19136;47.032;15.502;2023-10-09T15:00:51;9.63;;;2.97;;
32780;SDS011;19136;47.032;15.502;2023-10-09T15:03:16;5.88;;;2.63;;
32780;SDS011;19136;47.032;15.502;2023-10-09T15:05:48;14.55;;;2.90;;
32780;SDS011;19136;47.032;15.502;2023-10-09T15:08:13;8.10;;;2.30;;
32780;SDS011;19136;47.032;15.502;2023-10-09T15:10:49;11.73;;;2.95;;
32780;SDS011;19136;47.032;15.502;2023-10-09T15:13:17;11.27;;;2.72;;
32780;SDS011;19136;47.032;15.502;2023-10-09T15:15:43;9.63;;;4.78;;
32780;SDS011;19136;47.032;15.502;2023-10-09T15:18:08;8.82;;;3.80;;
32780;SDS011;19136;47.032;15.502;2023-10-09T15:20:37;10.02;;;3.03;;